Farmington, Minnesota
Current Conditions -  °F | °C
As of 3:46 PM on Thursday 27 Nov 2014 (Local Time) from KLVN Reporting Station
Clear Clear  
Wind Chill:   Ceiling: Unl
Heat Index:   Visibility: 10mi
Dew Point: -6°   Wind: 0mph
Humidity: 66%   Direction: NA
Pressure: 30.42"   Gusts: NA
Location:  44.64°N, 93.14°W
Report Text: KLVN 272146Z AUTO 00000KT 10SM CLR M16/M21 A3042 RMK AO2
Loading
Personal Weather Stations






























Interactive Weather Map New forecast layout! Learn more

10-Day Weather Forecast

Advertisements
Track Severe Weather on mobile